createdAt,value
2019-01-17T00:04:02.071Z,4.37
2019-01-17T00:09:26.172Z,4.36
2019-01-17T00:14:48.730Z,4.33
2019-01-17T00:20:09.207Z,4.29
2019-01-17T00:25:32.319Z,4.29
2019-01-17T00:31:06.093Z,4.30
2019-01-17T00:36:26.507Z,4.29
2019-01-17T00:41:47.013Z,4.25
2019-01-17T00:46:59.085Z,4.23
2019-01-17T00:52:36.305Z,4.21
2019-01-17T00:57:58.112Z,4.16
2019-01-17T01:03:24.950Z,4.16
2019-01-17T01:08:46.597Z,4.20
2019-01-17T01:14:17.449Z,4.16
2019-01-17T01:19:45.391Z,4.17
2019-01-17T01:24:57.633Z,4.16
2019-01-17T01:30:15.776Z,4.15
2019-01-17T01:35:43.427Z,4.10
2019-01-17T01:40:52.817Z,4.07
2019-01-17T01:46:13.191Z,4.07
2019-01-17T01:51:33.676Z,4.10
2019-01-17T01:56:36.339Z,4.12
2019-01-17T02:01:39.385Z,4.11
2019-01-17T02:06:42.037Z,4.11
2019-01-17T02:11:44.962Z,4.09
2019-01-17T02:16:47.645Z,4.10
2019-01-17T02:21:49.845Z,4.12
2019-01-17T02:26:52.747Z,4.17
2019-01-17T02:31:55.244Z,4.24
2019-01-17T02:36:58.098Z,4.29
2019-01-17T02:42:00.658Z,4.33
2019-01-17T02:47:03.554Z,4.40
2019-01-17T02:52:06.336Z,4.47
2019-01-17T02:57:09.054Z,4.54
2019-01-17T03:02:11.513Z,4.58
2019-01-17T03:07:14.718Z,4.64
2019-01-17T03:12:17.973Z,4.69
2019-01-17T03:17:20.752Z,4.74
2019-01-17T03:22:23.798Z,4.79
2019-01-17T03:27:27.322Z,4.84
2019-01-17T03:32:30.019Z,4.86
2019-01-17T03:37:32.753Z,4.91
2019-01-17T03:42:36.175Z,4.93
2019-01-17T03:47:39.209Z,4.94
2019-01-17T03:52:42.414Z,4.96
2019-01-17T03:57:46.343Z,5.00
2019-01-17T04:02:48.931Z,5.05
2019-01-17T04:07:51.191Z,5.05
2019-01-17T04:12:54.131Z,5.02
2019-01-17T04:17:56.957Z,5.02
2019-01-17T04:22:59.283Z,5.03
2019-01-17T04:28:01.772Z,5.03
2019-01-17T04:33:04.846Z,5.04
2019-01-17T04:38:07.437Z,5.06
2019-01-17T04:43:09.654Z,5.05
2019-01-17T04:48:12.028Z,5.08
2019-01-17T04:53:14.388Z,5.10
2019-01-17T04:58:16.867Z,5.14
2019-01-17T05:03:19.888Z,5.16
2019-01-17T05:08:22.215Z,5.21
2019-01-17T05:13:24.822Z,5.27
2019-01-17T05:18:27.522Z,5.32
2019-01-17T05:23:30.060Z,5.39
2019-01-17T05:28:32.754Z,5.47
2019-01-17T05:33:35.639Z,5.57
2019-01-17T05:38:39.074Z,5.63
2019-01-17T05:43:41.798Z,5.68
2019-01-17T05:48:44.344Z,5.71
2019-01-17T05:53:46.863Z,5.75
2019-01-17T05:58:49.195Z,5.75
2019-01-17T06:03:52.522Z,5.79
2019-01-17T06:08:54.699Z,5.79
2019-01-17T06:13:57.025Z,5.77
2019-01-17T06:19:00.036Z,5.74
2019-01-17T06:24:02.767Z,5.72
2019-01-17T06:29:05.210Z,5.71
2019-01-17T06:34:07.618Z,5.70
2019-01-17T06:39:10.840Z,5.70
2019-01-17T06:44:13.460Z,5.68
2019-01-17T06:49:16.601Z,5.66
2019-01-17T06:54:18.976Z,5.65
2019-01-17T06:59:21.792Z,5.66
2019-01-17T07:04:24.280Z,5.66
2019-01-17T07:09:27.152Z,5.68
2019-01-17T07:14:30.021Z,5.69
2019-01-17T07:19:32.257Z,5.69
2019-01-17T07:24:35.477Z,5.70
2019-01-17T07:29:38.043Z,5.64
2019-01-17T07:34:40.303Z,5.62
2019-01-17T07:39:43.127Z,5.61
2019-01-17T07:44:45.988Z,5.61
2019-01-17T07:49:48.760Z,5.60
2019-01-17T07:54:51.297Z,5.62
2019-01-17T07:59:53.669Z,5.62
2019-01-17T08:04:56.525Z,5.66
2019-01-17T08:10:01.559Z,5.67
2019-01-17T08:15:05.491Z,5.67
2019-01-17T08:20:19.165Z,5.68
2019-01-17T08:25:22.041Z,5.69
2019-01-17T08:30:26.622Z,5.69
2019-01-17T08:35:30.433Z,5.71
2019-01-17T08:40:34.025Z,5.74
2019-01-17T08:45:36.619Z,5.75
2019-01-17T08:50:39.589Z,5.74
2019-01-17T08:55:43.140Z,5.75
2019-01-17T09:00:45.909Z,5.77
2019-01-17T09:05:49.312Z,5.79
2019-01-17T09:10:51.691Z,5.81
2019-01-17T09:15:53.980Z,5.85
2019-01-17T09:20:56.405Z,5.87
2019-01-17T09:25:58.803Z,5.87
2019-01-17T09:31:01.697Z,5.84
2019-01-17T09:36:04.779Z,5.86
2019-01-17T09:41:07.505Z,5.88
2019-01-17T09:46:11.929Z,5.90
2019-01-17T09:51:15.240Z,5.94
2019-01-17T09:56:17.525Z,5.95
2019-01-17T10:01:20.443Z,6.00
2019-01-17T10:06:25.582Z,6.02
2019-01-17T10:11:27.863Z,6.01
2019-01-17T10:17:03.755Z,6.04
2019-01-17T10:23:02.340Z,6.06
2019-01-17T10:29:00.007Z,6.06
2019-01-17T10:34:21.498Z,6.10
2019-01-17T10:40:28.804Z,6.25
2019-01-17T10:46:27.777Z,6.34
2019-01-17T10:52:26.811Z,6.33
2019-01-17T10:58:01.317Z,6.33
2019-01-17T11:03:41.720Z,6.38
2019-01-17T11:09:37.281Z,6.43
2019-01-17T11:15:23.987Z,6.37
2019-01-17T11:21:08.560Z,6.43
2019-01-17T11:27:00.623Z,6.49
2019-01-17T11:32:35.306Z,6.53
2019-01-17T11:38:20.399Z,6.54
2019-01-17T11:43:58.704Z,6.46
2019-01-17T11:50:07.267Z,6.50
2019-01-17T11:55:29.776Z,6.52
2019-01-17T12:01:36.958Z,6.42
2019-01-17T12:06:40.010Z,6.46
2019-01-17T12:11:42.334Z,6.61
2019-01-17T12:16:49.282Z,6.64
2019-01-17T12:21:51.921Z,6.62
2019-01-17T12:26:54.559Z,6.65
2019-01-17T12:31:57.568Z,6.66
2019-01-17T12:37:00.148Z,6.64
2019-01-17T12:42:03.717Z,6.70
2019-01-17T12:47:06.277Z,6.72
2019-01-17T12:52:08.514Z,6.72
2019-01-17T12:57:11.121Z,6.82
2019-01-17T13:02:13.617Z,6.94
2019-01-17T13:07:15.934Z,7.18
2019-01-17T13:12:18.227Z,7.21
2019-01-17T13:17:20.663Z,7.35
2019-01-17T13:22:22.937Z,7.22
2019-01-17T13:27:25.110Z,7.36
2019-01-17T13:32:27.376Z,7.51
2019-01-17T13:37:29.666Z,7.50
2019-01-17T13:42:32.157Z,7.39
2019-01-17T13:47:34.883Z,7.33
2019-01-17T13:52:37.858Z,7.35
2019-01-17T13:57:41.048Z,7.35
2019-01-17T14:02:43.506Z,7.25
2019-01-17T14:07:46.837Z,7.20
2019-01-17T14:12:49.921Z,7.23
2019-01-17T14:17:53.259Z,7.23
2019-01-17T14:22:55.687Z,7.33
2019-01-17T14:27:57.918Z,7.41
2019-01-17T14:33:02.677Z,7.51
2019-01-17T14:38:05.004Z,7.58
2019-01-17T14:43:07.741Z,7.62
2019-01-17T14:48:10.031Z,7.53
2019-01-17T14:53:13.541Z,7.49
2019-01-17T14:58:15.807Z,7.50
2019-01-17T15:03:18.067Z,7.44
2019-01-17T15:08:20.972Z,7.35
2019-01-17T15:13:23.554Z,7.31
2019-01-17T15:18:25.732Z,7.21
2019-01-17T15:23:28.518Z,7.13
2019-01-17T15:28:31.422Z,7.04
2019-01-17T15:33:33.783Z,6.99
2019-01-17T15:38:36.842Z,6.90
2019-01-17T15:43:39.835Z,6.85
2019-01-17T15:48:44.020Z,6.81
2019-01-17T15:53:46.325Z,6.75
2019-01-17T15:58:48.558Z,6.71
2019-01-17T16:03:51.947Z,6.66
2019-01-17T16:08:55.229Z,6.62
2019-01-17T16:13:57.882Z,6.59
2019-01-17T16:19:00.166Z,6.57
2019-01-17T16:24:03.741Z,6.60
2019-01-17T16:29:06.253Z,6.61
2019-01-17T16:34:08.710Z,6.60
2019-01-17T16:39:12.049Z,6.58
2019-01-17T16:44:14.950Z,6.58
2019-01-17T16:49:19.138Z,6.55
2019-01-17T16:54:21.456Z,6.35
2019-01-17T16:59:24.267Z,6.18
2019-01-17T17:04:27.266Z,6.05
2019-01-17T17:09:29.852Z,6.00
2019-01-17T17:14:33.650Z,5.80
2019-01-17T17:19:36.048Z,5.73
2019-01-17T17:24:38.486Z,5.69
2019-01-17T17:29:41.762Z,5.73
2019-01-17T17:34:46.343Z,5.75
2019-01-17T17:39:48.549Z,5.75
2019-01-17T17:44:50.836Z,5.69
2019-01-17T17:49:53.944Z,5.57
2019-01-17T17:54:56.292Z,5.52
2019-01-17T17:59:59.063Z,5.48
2019-01-17T18:05:01.348Z,5.48
2019-01-17T18:10:07.426Z,5.49
2019-01-17T18:15:12.231Z,5.42
2019-01-17T18:20:15.070Z,5.32
2019-01-17T18:25:18.039Z,5.31
2019-01-17T18:30:21.878Z,5.20
2019-01-17T18:35:25.824Z,5.21
2019-01-17T18:40:28.221Z,5.16
2019-01-17T18:45:30.671Z,5.04
2019-01-17T18:50:33.813Z,4.91
2019-01-17T18:55:36.370Z,4.90
2019-01-17T19:00:38.961Z,4.78
2019-01-17T19:05:42.267Z,4.69
2019-01-17T19:10:45.253Z,4.65
2019-01-17T19:15:49.009Z,4.51
2019-01-17T19:20:51.684Z,4.60
2019-01-17T19:25:54.162Z,4.63
2019-01-17T19:30:56.666Z,4.59
2019-01-17T19:35:59.018Z,4.52
2019-01-17T19:41:01.446Z,4.59
2019-01-17T19:46:03.956Z,4.56
2019-01-17T19:51:06.556Z,4.50
2019-01-17T19:56:09.057Z,4.57
2019-01-17T20:01:11.457Z,4.59
2019-01-17T20:06:14.019Z,4.51
2019-01-17T20:11:17.223Z,4.50
2019-01-17T20:16:19.981Z,4.45
2019-01-17T20:21:22.578Z,4.49
2019-01-17T20:26:25.102Z,4.50
2019-01-17T20:31:27.597Z,4.53
2019-01-17T20:36:29.987Z,4.49
2019-01-17T20:41:32.861Z,4.43
2019-01-17T20:46:35.428Z,4.37
2019-01-17T20:51:37.735Z,4.36
2019-01-17T20:56:40.674Z,4.37
2019-01-17T21:02:06.174Z,4.36
2019-01-17T21:07:08.695Z,4.31
2019-01-17T21:12:11.484Z,4.34
2019-01-17T21:17:13.875Z,4.29
2019-01-17T21:22:16.810Z,4.23
2019-01-17T21:27:23.723Z,4.25
2019-01-17T21:32:27.112Z,4.20
2019-01-17T21:37:29.707Z,4.20
2019-01-17T21:42:32.285Z,4.17
2019-01-17T21:47:34.995Z,4.20
2019-01-17T21:52:37.553Z,4.20
2019-01-17T21:57:40.082Z,4.10
2019-01-17T22:02:42.514Z,4.07
2019-01-17T22:07:45.589Z,4.11
2019-01-17T22:12:48.033Z,4.00
2019-01-17T22:17:50.747Z,3.95
2019-01-17T22:22:52.950Z,4.00
2019-01-17T22:27:55.544Z,3.96
2019-01-17T22:32:58.261Z,3.91
2019-01-17T22:38:00.752Z,3.86
2019-01-17T22:43:03.472Z,3.86
2019-01-17T22:48:06.205Z,3.83
2019-01-17T22:53:08.692Z,3.84
2019-01-17T22:58:11.422Z,3.89
2019-01-17T23:03:13.667Z,3.83
2019-01-17T23:08:16.274Z,3.73
2019-01-17T23:13:18.924Z,3.63
2019-01-17T23:18:21.514Z,3.53
2019-01-17T23:23:24.047Z,3.42
2019-01-17T23:28:26.496Z,3.39
2019-01-17T23:33:29.286Z,3.38
2019-01-17T23:38:31.656Z,3.31
2019-01-17T23:43:34.150Z,3.30
2019-01-17T23:48:37.943Z,3.28
2019-01-17T23:53:42.251Z,3.24
2019-01-17T23:58:44.555Z,3.17
